Terminal Aerodrome Forecast
Issued by NWS Jackson, MS

Home | Current Version | Previous Version | Text Only | Print | Product List | Glossary On
Versions: 1 2 3 4 5 6 7 8 9 10 11 12 13
000
FTUS44 KJAN 192300
TAFMEI
TAF
KMEI 192334Z 2000/2024 VRB03KT P6SM SKC
     FM200930 VRB03KT 4SM BR SCT003
     FM201330 09006KT P6SM FEW060=

USA.gov is the U.S. government's official web portal to all federal, state and local government web resources and services.